createdAt,value
2019-01-31T00:03:40.863Z,42.67
2019-01-31T00:08:49.820Z,37.57
2019-01-31T00:13:42.520Z,33.57
2019-01-31T00:18:30.793Z,43.50
2019-01-31T00:23:37.296Z,30.37
2019-01-31T00:28:07.024Z,29.37
2019-01-31T00:33:16.133Z,33.23
2019-01-31T00:37:48.043Z,31.93
2019-01-31T00:42:45.124Z,28.40
2019-01-31T00:47:15.442Z,28.07
2019-01-31T00:51:59.223Z,30.70
2019-01-31T00:56:46.770Z,33.47
2019-01-31T01:01:36.549Z,27.27
2019-01-31T01:06:36.557Z,33.07
2019-01-31T01:11:59.920Z,29.90
2019-01-31T01:16:55.391Z,27.83
2019-01-31T01:21:31.036Z,23.20
2019-01-31T01:26:39.366Z,23.33
2019-01-31T01:31:51.877Z,23.43
2019-01-31T01:36:49.285Z,20.50
2019-01-31T01:41:42.343Z,22.93
2019-01-31T01:47:05.428Z,21.77
2019-01-31T01:52:01.850Z,19.40
2019-01-31T01:56:45.448Z,19.97
2019-01-31T02:01:34.767Z,19.50
2019-01-31T02:06:42.467Z,20.33
2019-01-31T02:11:21.360Z,21.87
2019-01-31T02:16:38.102Z,19.43
2019-01-31T02:21:29.597Z,18.93
2019-01-31T02:25:55.130Z,27.17
2019-01-31T02:30:43.910Z,15.67
2019-01-31T02:35:24.859Z,22.03
2019-01-31T02:40:07.315Z,19.63
2019-01-31T02:45:27.888Z,22.93
2019-01-31T02:50:11.413Z,22.73
2019-01-31T02:54:47.842Z,22.23
2019-01-31T02:59:54.634Z,19.03
2019-01-31T03:04:39.119Z,17.37
2019-01-31T03:09:54.625Z,18.73
2019-01-31T03:14:22.117Z,20.00
2019-01-31T03:18:52.257Z,16.13
2019-01-31T03:23:54.909Z,18.33
2019-01-31T03:28:40.724Z,17.00
2019-01-31T03:33:48.795Z,20.07
2019-01-31T03:38:37.136Z,21.30
2019-01-31T03:43:23.501Z,21.60
2019-01-31T03:48:18.754Z,12.90
2019-01-31T03:53:06.079Z,18.93
2019-01-31T03:57:57.665Z,21.33
2019-01-31T04:02:36.208Z,16.83
2019-01-31T04:06:41.175Z,18.30
2019-01-31T04:10:46.047Z,23.43
2019-01-31T04:14:50.939Z,18.93
2019-01-31T04:18:56.249Z,17.80
2019-01-31T04:23:01.164Z,20.10
2019-01-31T04:27:06.073Z,21.03
2019-01-31T04:31:10.979Z,17.60
2019-01-31T04:35:15.945Z,20.87
2019-01-31T04:39:21.169Z,18.00
2019-01-31T04:43:26.136Z,21.53
2019-01-31T04:47:31.031Z,20.33
2019-01-31T04:51:36.289Z,20.53
2019-01-31T04:55:41.287Z,23.37
2019-01-31T04:59:46.502Z,32.30
2019-01-31T05:03:51.405Z,21.47
2019-01-31T05:07:56.320Z,18.40
2019-01-31T05:12:01.210Z,23.03
2019-01-31T05:16:06.146Z,16.50
2019-01-31T05:20:15.239Z,20.10
2019-01-31T05:24:20.205Z,22.57
2019-01-31T05:28:25.481Z,22.50
2019-01-31T05:32:30.423Z,20.23
2019-01-31T05:36:35.504Z,25.10
2019-01-31T05:40:40.473Z,25.70
2019-01-31T05:44:46.375Z,20.20
2019-01-31T05:48:51.864Z,23.50
2019-01-31T05:52:56.842Z,26.97
2019-01-31T05:57:02.131Z,19.80
2019-01-31T06:01:07.114Z,20.43
2019-01-31T06:05:12.459Z,21.73
2019-01-31T06:09:17.471Z,23.87
2019-01-31T06:13:22.705Z,24.70
2019-01-31T06:17:28.072Z,19.20
2019-01-31T06:21:33.044Z,21.90
2019-01-31T06:25:38.376Z,20.10
2019-01-31T06:29:43.343Z,21.23
2019-01-31T06:33:48.329Z,22.03
2019-01-31T06:37:53.356Z,24.60
2019-01-31T06:41:58.275Z,28.03
2019-01-31T06:46:03.163Z,26.67
2019-01-31T06:50:08.971Z,26.17
2019-01-31T06:54:13.876Z,28.47
2019-01-31T06:58:18.877Z,26.87
2019-01-31T07:02:23.768Z,45.47
2019-01-31T07:06:28.686Z,39.40
2019-01-31T07:10:33.626Z,38.17
2019-01-31T07:14:38.511Z,29.90
2019-01-31T07:18:43.410Z,29.60
2019-01-31T07:22:48.303Z,26.77
2019-01-31T07:26:53.203Z,28.93
2019-01-31T07:30:58.114Z,26.93
2019-01-31T07:35:03.053Z,27.80
2019-01-31T07:39:09.624Z,34.30
2019-01-31T07:43:14.534Z,30.77
2019-01-31T07:47:19.427Z,35.97
2019-01-31T07:51:24.352Z,36.27
2019-01-31T07:55:29.250Z,38.40
2019-01-31T07:59:34.161Z,42.30
2019-01-31T08:03:40.742Z,39.13
2019-01-31T08:07:45.965Z,44.17
2019-01-31T08:11:52.641Z,53.77
2019-01-31T08:15:57.481Z,49.30
2019-01-31T08:20:02.384Z,52.60
2019-01-31T08:24:09.539Z,53.90
2019-01-31T08:28:13.960Z,53.53
2019-01-31T08:32:18.857Z,52.30
2019-01-31T08:36:23.772Z,59.37
2019-01-31T08:40:28.640Z,65.03
2019-01-31T08:44:33.559Z,72.83
2019-01-31T08:48:38.546Z,63.60
2019-01-31T08:52:43.451Z,72.23
2019-01-31T08:56:48.324Z,63.00
2019-01-31T09:00:53.252Z,67.37
2019-01-31T09:04:58.147Z,75.70
2019-01-31T09:09:04.276Z,81.07
2019-01-31T09:13:11.735Z,78.97
2019-01-31T09:17:16.721Z,73.17
2019-01-31T09:21:54.294Z,74.77
2019-01-31T09:26:41.448Z,87.27
2019-01-31T09:31:30.156Z,100.67
2019-01-31T09:36:07.712Z,91.77
2019-01-31T09:40:58.519Z,101.67
2019-01-31T09:46:30.965Z,103.33
2019-01-31T09:51:35.290Z,116.77
2019-01-31T09:56:47.099Z,98.40
2019-01-31T10:01:45.798Z,99.07
2019-01-31T10:06:16.185Z,102.27
2019-01-31T10:10:58.512Z,98.30
2019-01-31T10:16:05.753Z,76.53
2019-01-31T10:21:30.136Z,55.27
2019-01-31T10:26:33.529Z,52.10
2019-01-31T10:31:59.356Z,46.90
2019-01-31T10:37:11.929Z,43.43
2019-01-31T10:41:46.694Z,47.20
2019-01-31T10:46:26.978Z,45.67
2019-01-31T10:51:20.378Z,52.37
2019-01-31T10:55:54.296Z,45.13
2019-01-31T11:00:52.997Z,46.27
2019-01-31T11:06:12.575Z,42.93
2019-01-31T11:10:29.821Z,35.97
2019-01-31T11:15:23.003Z,38.63
2019-01-31T11:19:58.160Z,37.57
2019-01-31T11:25:27.164Z,30.63
2019-01-31T11:30:32.707Z,32.23
2019-01-31T11:34:58.067Z,31.17
2019-01-31T11:39:56.681Z,29.57
2019-01-31T11:44:40.816Z,31.90
2019-01-31T11:49:46.620Z,29.87
2019-01-31T11:54:25.414Z,27.43
2019-01-31T11:58:59.414Z,29.90
2019-01-31T12:03:04.400Z,24.70
2019-01-31T12:07:09.291Z,27.43
2019-01-31T12:11:14.175Z,22.80
2019-01-31T12:15:19.318Z,25.90
2019-01-31T12:19:24.305Z,23.00
2019-01-31T12:23:32.151Z,23.70
2019-01-31T12:27:35.809Z,25.53
2019-01-31T12:31:40.842Z,26.13
2019-01-31T12:35:45.727Z,23.10
2019-01-31T12:39:52.229Z,27.63
2019-01-31T12:43:57.193Z,23.73
2019-01-31T12:48:02.115Z,25.80
2019-01-31T12:52:07.023Z,23.27
2019-01-31T12:56:12.016Z,24.10
2019-01-31T13:00:21.657Z,25.90
2019-01-31T13:04:26.614Z,21.83
2019-01-31T13:08:31.564Z,21.33
2019-01-31T13:12:36.496Z,21.13
2019-01-31T13:16:41.799Z,22.53
2019-01-31T13:20:46.789Z,20.53
2019-01-31T13:24:51.682Z,27.60
2019-01-31T13:28:56.562Z,21.73
2019-01-31T13:33:01.550Z,21.40
2019-01-31T13:37:06.532Z,29.80
2019-01-31T13:41:11.413Z,35.03
2019-01-31T13:45:19.191Z,30.87
2019-01-31T13:49:24.101Z,27.23
2019-01-31T13:53:29.300Z,30.10
2019-01-31T13:57:34.243Z,32.03
2019-01-31T14:01:39.131Z,30.83
2019-01-31T14:05:44.026Z,28.90
2019-01-31T14:09:48.935Z,31.07
2019-01-31T14:13:53.839Z,29.47
2019-01-31T14:17:58.726Z,25.60
2019-01-31T14:22:03.944Z,27.50
2019-01-31T14:26:08.852Z,28.90
2019-01-31T14:30:29.949Z,25.97
2019-01-31T14:34:34.889Z,22.43
2019-01-31T14:38:39.770Z,23.33
2019-01-31T14:42:44.681Z,27.13
2019-01-31T14:46:49.595Z,24.80
2019-01-31T14:50:54.635Z,28.40
2019-01-31T14:54:59.934Z,24.97
2019-01-31T14:59:04.831Z,24.47
2019-01-31T15:03:09.775Z,28.23
2019-01-31T15:07:14.667Z,28.23
2019-01-31T15:11:19.574Z,26.97
2019-01-31T15:15:24.480Z,29.47
2019-01-31T15:19:29.370Z,29.23
2019-01-31T15:23:34.277Z,31.37
2019-01-31T15:27:39.177Z,35.40
2019-01-31T15:31:44.066Z,26.63
2019-01-31T15:35:48.971Z,30.53
2019-01-31T15:39:54.125Z,35.57
2019-01-31T15:43:59.133Z,31.50
2019-01-31T15:48:04.145Z,31.87
2019-01-31T15:52:09.041Z,32.10
2019-01-31T15:56:13.926Z,32.87
2019-01-31T16:00:28.670Z,38.67
2019-01-31T16:04:33.567Z,34.63
2019-01-31T16:08:38.579Z,35.97
2019-01-31T16:12:43.506Z,35.17
2019-01-31T16:16:48.649Z,35.47
2019-01-31T16:20:53.545Z,33.40
2019-01-31T16:24:58.448Z,38.10
2019-01-31T16:29:03.453Z,35.90
2019-01-31T16:33:09.632Z,34.13
2019-01-31T16:37:14.534Z,39.07
2019-01-31T16:41:19.862Z,33.07
2019-01-31T16:45:24.899Z,44.67
2019-01-31T16:49:29.832Z,38.47
2019-01-31T16:53:35.036Z,33.67
2019-01-31T16:57:40.026Z,41.33
2019-01-31T17:01:45.239Z,38.30
2019-01-31T17:05:50.221Z,35.20
2019-01-31T17:09:55.134Z,44.37
2019-01-31T17:14:00.118Z,36.20
2019-01-31T17:18:07.374Z,38.97
2019-01-31T17:22:12.334Z,36.03
2019-01-31T17:26:19.857Z,34.80
2019-01-31T17:30:25.295Z,37.83
2019-01-31T17:34:30.266Z,36.03
2019-01-31T17:38:35.147Z,37.97
2019-01-31T17:42:40.102Z,42.13
2019-01-31T17:46:45.053Z,34.87
2019-01-31T17:50:50.299Z,35.73
2019-01-31T17:54:56.107Z,33.83
2019-01-31T17:59:01.161Z,35.83
2019-01-31T18:03:06.646Z,32.13
2019-01-31T18:07:11.624Z,37.57
2019-01-31T18:11:16.564Z,36.30
2019-01-31T18:15:21.477Z,41.30
2019-01-31T18:19:26.371Z,38.63
2019-01-31T18:23:31.588Z,37.63
2019-01-31T18:27:36.548Z,33.97
2019-01-31T18:31:42.086Z,36.33
2019-01-31T18:35:46.969Z,34.50
2019-01-31T18:39:51.869Z,36.53
2019-01-31T18:43:56.773Z,35.57
2019-01-31T18:48:04.846Z,33.63
2019-01-31T18:52:08.977Z,35.37
2019-01-31T18:56:13.889Z,37.50
2019-01-31T19:00:24.077Z,35.23
2019-01-31T19:04:29.006Z,36.97
2019-01-31T19:08:34.093Z,34.10
2019-01-31T19:12:39.088Z,31.77
2019-01-31T19:16:44.069Z,38.17
2019-01-31T19:20:49.078Z,37.57
2019-01-31T19:24:53.978Z,35.73
2019-01-31T19:28:58.940Z,37.33
2019-01-31T19:33:03.881Z,34.30
2019-01-31T19:37:08.869Z,33.33
2019-01-31T19:41:13.842Z,36.90
2019-01-31T19:45:40.204Z,33.33
2019-01-31T19:49:45.435Z,35.33
2019-01-31T19:53:50.508Z,40.63
2019-01-31T19:57:55.820Z,34.90
2019-01-31T20:02:00.852Z,34.50
2019-01-31T20:06:05.818Z,38.47
2019-01-31T20:10:12.020Z,32.10
2019-01-31T20:14:17.178Z,32.17
2019-01-31T20:18:22.139Z,31.40
2019-01-31T20:22:29.835Z,35.20
2019-01-31T20:26:34.804Z,32.37
2019-01-31T20:30:39.735Z,27.67
2019-01-31T20:34:44.696Z,28.30
2019-01-31T20:38:49.715Z,25.43
2019-01-31T20:42:54.716Z,26.33
2019-01-31T20:46:59.714Z,29.20
2019-01-31T20:51:04.767Z,28.70
2019-01-31T20:55:12.202Z,26.90
2019-01-31T20:59:18.215Z,27.47
2019-01-31T21:03:24.838Z,33.20
2019-01-31T21:07:30.000Z,33.63
2019-01-31T21:11:35.160Z,33.10
2019-01-31T21:15:40.190Z,29.50
2019-01-31T21:19:45.155Z,30.83
2019-01-31T21:23:50.092Z,40.93
2019-01-31T21:27:55.046Z,35.03
2019-01-31T21:32:00.015Z,35.33
2019-01-31T21:36:04.920Z,31.53
2019-01-31T21:40:10.659Z,31.27
2019-01-31T21:44:15.642Z,32.30
2019-01-31T21:48:20.889Z,30.80
2019-01-31T21:52:28.382Z,30.20
2019-01-31T21:56:33.285Z,24.83
2019-01-31T22:00:38.265Z,35.10
2019-01-31T22:04:43.760Z,36.63
2019-01-31T22:08:48.635Z,32.07
2019-01-31T22:12:54.194Z,33.60
2019-01-31T22:16:59.143Z,34.53
2019-01-31T22:21:04.053Z,27.27
2019-01-31T22:25:11.106Z,30.33
2019-01-31T22:29:16.042Z,28.77
2019-01-31T22:33:20.937Z,36.03
2019-01-31T22:37:26.155Z,34.17
2019-01-31T22:41:31.047Z,33.13
2019-01-31T22:45:35.973Z,35.83
2019-01-31T22:49:40.857Z,36.90
2019-01-31T22:53:45.780Z,31.03
2019-01-31T22:57:50.980Z,38.57
2019-01-31T23:02:03.524Z,39.43
2019-01-31T23:06:12.539Z,40.67
2019-01-31T23:10:17.705Z,38.17
2019-01-31T23:14:22.606Z,30.37
2019-01-31T23:19:05.588Z,34.70
2019-01-31T23:23:10.505Z,32.07
2019-01-31T23:27:15.394Z,35.50
2019-01-31T23:31:20.594Z,32.50
2019-01-31T23:35:25.840Z,29.67
2019-01-31T23:39:30.765Z,26.77
2019-01-31T23:43:35.928Z,30.67
2019-01-31T23:47:48.421Z,27.90
2019-01-31T23:51:48.051Z,26.20
2019-01-31T23:55:52.962Z,28.63
2019-01-31T23:59:57.876Z,23.07
